Time;durP1;ratioP1;P1;durP2;ratioP2;P2;SDS_P1;SDS_P2;PMS_P1;PMS_P2;Temp;Humidity;BMP_temperature;BMP_pressure;BME280_temperature;BME280_humidity;BME280_pressure;Samples;Min_cycle;Max_cycle;Signal;HPM_P1;HPM_P2
2021/11/30 00:00:30;;;;;;;4.82;2.80;;;17.60;99.90;;;;;;4193492;28;20219;-73
2021/11/30 00:02:32;;;;;;;6.70;2.88;;;17.60;99.90;;;;;;4195689;28;20280;-73
2021/11/30 00:04:34;;;;;;;5.47;3.33;;;17.60;99.90;;;;;;4195935;28;20265;-73
2021/11/30 00:06:37;;;;;;;5.05;2.72;;;17.60;99.90;;;;;;4195295;28;20215;-72
2021/11/30 00:08:40;;;;;;;4.90;2.70;;;17.60;99.90;;;;;;4195241;28;20223;-73
2021/11/30 00:10:45;;;;;;;4.25;2.80;;;17.60;99.90;;;;;;4195702;28;20230;-73
2021/11/30 00:12:49;;;;;;;4.75;2.85;;;17.60;99.90;;;;;;4195024;28;20215;-73
2021/11/30 00:14:55;;;;;;;4.90;2.92;;;17.60;99.90;;;;;;4195171;28;20222;-73
2021/11/30 00:16:58;;;;;;;5.22;3.00;;;17.60;99.90;;;;;;4190363;28;20219;-73
2021/11/30 00:19:00;;;;;;;5.55;3.10;;;17.50;99.90;;;;;;4194145;28;20254;-73
2021/11/30 00:21:05;;;;;;;4.32;2.67;;;17.60;99.90;;;;;;4195381;28;20269;-73
2021/11/30 00:23:08;;;;;;;3.70;2.25;;;17.50;99.90;;;;;;4195137;28;20211;-73
2021/11/30 00:25:10;;;;;;;4.50;2.80;;;17.50;99.90;;;;;;4194994;28;20277;-73
2021/11/30 00:27:13;;;;;;;5.07;2.70;;;17.50;99.90;;;;;;4194721;28;20223;-73
2021/11/30 00:29:17;;;;;;;4.47;2.65;;;17.50;99.90;;;;;;4195009;28;20257;-73
2021/11/30 00:31:19;;;;;;;5.30;2.83;;;17.50;99.90;;;;;;4194964;28;20211;-73
2021/11/30 00:33:22;;;;;;;6.90;2.60;;;17.50;99.90;;;;;;4192645;28;20277;-73
2021/11/30 00:35:24;;;;;;;4.68;2.60;;;17.50;99.90;;;;;;4190928;28;20735;-73
2021/11/30 00:37:26;;;;;;;6.40;3.05;;;17.50;99.90;;;;;;4194654;28;20219;-73
2021/11/30 00:39:29;;;;;;;5.40;2.65;;;17.50;99.90;;;;;;4194807;28;20211;-73
2021/11/30 00:41:31;;;;;;;4.82;2.72;;;17.40;99.90;;;;;;4194899;28;20265;-73
2021/11/30 00:43:36;;;;;;;4.70;2.80;;;17.50;99.90;;;;;;4194542;28;20219;-73
2021/11/30 00:45:47;;;;;;;5.57;2.78;;;17.50;99.90;;;;;;4193260;28;20277;-73
2021/11/30 00:47:54;;;;;;;4.90;2.90;;;17.50;99.90;;;;;;4192813;28;20640;-73
2021/11/30 00:49:58;;;;;;;3.58;2.38;;;17.50;99.90;;;;;;4194421;28;20234;-73
2021/11/30 00:52:01;;;;;;;5.65;2.50;;;17.50;99.90;;;;;;4191482;28;20241;-73
2021/11/30 00:54:07;;;;;;;4.43;2.53;;;17.50;99.90;;;;;;4189956;28;20215;-73
2021/11/30 00:56:10;;;;;;;3.72;2.90;;;17.40;99.90;;;;;;4194550;28;20273;-73
2021/11/30 00:58:12;;;;;;;4.85;2.72;;;17.50;99.90;;;;;;4195375;28;20637;-73
2021/11/30 01:00:18;;;;;;;6.05;2.83;;;17.40;99.90;;;;;;4194759;28;20215;-73
2021/11/30 01:02:22;;;;;;;2.97;2.42;;;17.40;99.90;;;;;;4194794;28;20626;-73
2021/11/30 01:04:25;;;;;;;4.00;2.65;;;17.40;99.90;;;;;;4194430;28;20265;-73
2021/11/30 01:06:27;;;;;;;4.38;2.45;;;17.40;99.90;;;;;;4194420;28;20231;-73
2021/11/30 01:08:29;;;;;;;3.70;2.67;;;17.40;99.90;;;;;;4194505;28;20241;-73
2021/11/30 01:10:32;;;;;;;4.93;2.78;;;17.40;99.90;;;;;;4194755;28;20725;-73
2021/11/30 01:12:35;;;;;;;4.10;2.60;;;17.40;99.90;;;;;;4190129;28;20226;-73
2021/11/30 01:14:38;;;;;;;4.80;2.50;;;17.40;99.90;;;;;;4193611;28;20215;-73
2021/11/30 01:16:40;;;;;;;3.83;2.42;;;17.40;99.90;;;;;;4194310;28;20264;-73
2021/11/30 01:18:44;;;;;;;4.85;2.80;;;17.40;99.90;;;;;;4193019;28;20214;-73
2021/11/30 01:20:47;;;;;;;4.45;2.90;;;17.30;99.90;;;;;;4194329;28;20629;-73
2021/11/30 01:22:49;;;;;;;4.57;2.50;;;17.30;99.90;;;;;;4194630;28;20199;-73
2021/11/30 01:24:52;;;;;;;3.72;2.50;;;17.30;99.90;;;;;;4194407;28;20219;-73
2021/11/30 01:26:54;;;;;;;3.90;2.60;;;17.40;99.90;;;;;;4194318;28;20238;-73
2021/11/30 01:28:56;;;;;;;4.18;2.35;;;17.40;99.90;;;;;;4194603;28;20215;-73
2021/11/30 01:30:59;;;;;;;3.75;2.38;;;17.30;99.90;;;;;;4187190;28;20609;-72
2021/11/30 01:33:01;;;;;;;3.97;2.75;;;17.40;99.90;;;;;;4193826;28;20215;-73
2021/11/30 01:35:06;;;;;;;4.43;2.13;;;17.30;99.90;;;;;;4194006;28;20218;-73
2021/11/30 01:37:13;;;;;;;3.90;2.00;;;17.30;99.90;;;;;;4194211;28;20266;-73
2021/11/30 01:39:16;;;;;;;4.75;2.53;;;17.30;99.90;;;;;;4192816;28;20211;-73
2021/11/30 01:41:19;;;;;;;5.97;2.63;;;17.30;99.90;;;;;;4194690;28;20223;-73
2021/11/30 01:43:26;;;;;;;5.45;2.75;;;17.30;99.90;;;;;;4192306;28;20255;-73
2021/11/30 01:45:42;;;;;;;4.88;3.05;;;17.30;99.90;;;;;;4193985;28;20215;-74
2021/11/30 01:49:06;;;;;;;4.47;2.65;;;17.30;99.90;;;;;;4194527;28;20268;-73
2021/11/30 01:50:22;;;;;;;4.28;2.65;;;17.30;99.90;;;;;;4180636;28;20277;-73
2021/11/30 01:52:25;;;;;;;4.72;2.67;;;17.30;99.90;;;;;;4177472;28;20325;-73
2021/11/30 01:54:28;;;;;;;4.20;2.20;;;17.30;99.90;;;;;;4180662;28;20263;-72
2021/11/30 01:56:30;;;;;;;4.57;2.17;;;17.30;99.90;;;;;;4179516;28;20266;-73
2021/11/30 01:58:32;;;;;;;3.70;2.30;;;17.20;99.90;;;;;;4181993;28;20294;-73
2021/11/30 02:00:37;;;;;;;3.33;2.30;;;17.20;99.90;;;;;;4179095;28;20564;-73
2021/11/30 02:02:39;;;;;;;3.10;2.22;;;17.20;99.90;;;;;;4181059;28;20219;-73
2021/11/30 02:04:42;;;;;;;4.32;2.25;;;17.20;99.90;;;;;;4180541;28;20249;-73
2021/11/30 02:06:46;;;;;;;3.70;2.38;;;17.20;99.90;;;;;;4180862;28;20231;-73
2021/11/30 02:08:48;;;;;;;4.82;2.22;;;17.20;99.90;;;;;;4175976;28;20276;-73
2021/11/30 02:10:54;;;;;;;3.25;2.10;;;17.20;99.90;;;;;;4179613;28;20347;-73
2021/11/30 02:12:56;;;;;;;3.22;2.17;;;17.20;99.90;;;;;;4180818;28;20243;-73
2021/11/30 02:15:01;;;;;;;3.88;2.35;;;17.20;99.90;;;;;;4180318;28;20265;-73
2021/11/30 02:17:06;;;;;;;4.32;2.10;;;17.20;99.90;;;;;;4180529;28;20204;-73
2021/11/30 02:19:09;;;;;;;3.40;2.20;;;17.20;99.90;;;;;;4180265;28;20616;-73
2021/11/30 02:21:12;;;;;;;3.63;2.35;;;17.20;99.90;;;;;;4180196;28;20215;-73
2021/11/30 02:23:25;;;;;;;4.10;2.45;;;17.20;99.90;;;;;;4180158;28;20269;-73
2021/11/30 02:25:27;;;;;;;4.22;2.40;;;17.20;99.90;;;;;;4178775;28;20220;-73
2021/11/30 02:27:29;;;;;;;3.85;2.22;;;17.20;99.90;;;;;;4176248;28;20294;-73
2021/11/30 02:29:32;;;;;;;4.10;2.20;;;17.20;99.90;;;;;;4176230;28;20220;-73
2021/11/30 02:31:37;;;;;;;4.70;2.47;;;17.20;99.90;;;;;;4179195;28;20223;-73
2021/11/30 02:33:40;;;;;;;3.47;2.28;;;17.20;99.90;;;;;;4179398;28;20672;-73
2021/11/30 02:35:42;;;;;;;4.72;2.13;;;17.20;99.90;;;;;;4179852;28;20648;-73
2021/11/30 02:37:50;;;;;;;3.50;1.98;;;17.20;99.90;;;;;;4180244;28;20258;-73
2021/11/30 02:39:52;;;;;;;4.22;2.30;;;17.20;99.90;;;;;;4180247;28;20269;-73
2021/11/30 02:41:57;;;;;;;3.03;1.92;;;17.20;99.90;;;;;;4177942;28;20633;-73
2021/11/30 02:44:00;;;;;;;4.30;2.35;;;17.20;99.90;;;;;;4180195;28;20266;-73
2021/11/30 02:46:02;;;;;;;2.75;1.90;;;17.10;99.90;;;;;;4173473;28;20216;-73
2021/11/30 02:48:05;;;;;;;3.17;2.33;;;17.10;99.90;;;;;;4176646;28;20220;-73
2021/11/30 02:50:09;;;;;;;3.10;1.98;;;17.20;99.90;;;;;;4190437;28;20235;-73
2021/11/30 02:52:13;;;;;;;3.00;1.88;;;17.20;99.90;;;;;;4196773;28;20207;-73
2021/11/30 02:54:19;;;;;;;3.83;1.90;;;17.10;99.90;;;;;;4196654;28;20329;-73
2021/11/30 02:56:22;;;;;;;3.00;1.90;;;17.10;99.90;;;;;;4196476;28;20253;-73
2021/11/30 02:58:24;;;;;;;3.58;1.85;;;17.20;99.90;;;;;;4196595;28;20430;-73
2021/11/30 03:00:26;;;;;;;4.25;2.20;;;17.10;99.90;;;;;;4196042;28;20618;-73
2021/11/30 03:02:29;;;;;;;3.63;1.77;;;17.10;99.90;;;;;;4196589;28;20270;-73
2021/11/30 03:04:33;;;;;;;4.07;2.17;;;17.10;99.90;;;;;;4192962;28;20272;-73
2021/11/30 03:06:35;;;;;;;2.70;1.90;;;17.10;99.90;;;;;;4194141;28;20288;-73
2021/11/30 03:08:39;;;;;;;3.85;2.20;;;17.10;99.90;;;;;;4196825;28;20257;-73
2021/11/30 03:10:43;;;;;;;2.95;1.85;;;17.10;99.90;;;;;;4196359;28;20257;-73
2021/11/30 03:12:47;;;;;;;3.72;2.38;;;17.10;99.90;;;;;;4196640;28;20560;-73
2021/11/30 03:14:49;;;;;;;2.78;1.85;;;17.10;99.90;;;;;;4196374;28;20269;-73
2021/11/30 03:16:52;;;;;;;3.55;2.33;;;17.10;99.90;;;;;;4196061;28;20211;-73
2021/11/30 03:18:54;;;;;;;2.70;1.80;;;17.10;99.90;;;;;;4196288;28;20219;-73
2021/11/30 03:20:57;;;;;;;3.03;1.95;;;17.10;99.90;;;;;;4195871;28;20211;-73
2021/11/30 03:23:00;;;;;;;2.65;1.95;;;17.10;99.90;;;;;;4191791;28;20215;-73
2021/11/30 03:25:02;;;;;;;3.90;1.98;;;17.10;99.90;;;;;;4195063;28;20219;-73
2021/11/30 03:27:06;;;;;;;3.08;2.10;;;17.00;99.90;;;;;;4196125;28;20273;-73
2021/11/30 03:29:08;;;;;;;3.92;1.85;;;17.00;99.90;;;;;;4196007;28;20227;-73
2021/11/30 03:31:21;;;;;;;2.10;1.60;;;17.00;99.90;;;;;;4195749;28;20210;-74
2021/11/30 03:35:43;;;;;;;2.13;1.58;;;17.00;99.90;;;;;;4196154;28;20210;-73
2021/11/30 03:37:45;;;;;;;2.92;1.90;;;17.10;99.90;;;;;;4196240;28;20211;-73
2021/11/30 03:39:47;;;;;;;2.45;1.85;;;17.00;99.90;;;;;;4192114;28;20284;-73
2021/11/30 03:41:51;;;;;;;2.60;1.80;;;17.00;99.90;;;;;;4194220;28;20652;-73
2021/11/30 03:43:55;;;;;;;2.83;1.88;;;17.10;99.90;;;;;;4195988;28;20726;-73
2021/11/30 03:45:57;;;;;;;3.17;2.05;;;17.00;99.90;;;;;;4195551;28;21065;-73
2021/11/30 03:48:00;;;;;;;2.95;1.80;;;17.00;99.90;;;;;;4195883;28;20227;-73
2021/11/30 03:50:02;;;;;;;3.33;2.03;;;17.00;99.90;;;;;;4195467;28;20252;-73
2021/11/30 03:52:05;;;;;;;2.78;2.03;;;17.00;99.90;;;;;;4196360;28;20741;-73
2021/11/30 03:54:08;;;;;;;3.67;2.05;;;17.00;99.90;;;;;;4195758;28;20277;-73
2021/11/30 03:56:10;;;;;;;3.65;1.70;;;17.00;99.90;;;;;;4195905;28;20211;-73
2021/11/30 03:58:13;;;;;;;3.03;1.80;;;17.00;99.90;;;;;;4195554;28;20215;-73
2021/11/30 04:00:17;;;;;;;4.22;2.00;;;17.00;99.90;;;;;;4191105;28;20219;-73
2021/11/30 04:02:19;;;;;;;3.38;1.95;;;17.00;99.90;;;;;;4195404;28;20253;-74
2021/11/30 04:04:23;;;;;;;3.30;2.30;;;17.00;99.90;;;;;;4193412;28;20750;-73
2021/11/30 04:06:26;;;;;;;3.85;2.20;;;17.00;99.90;;;;;;4195850;28;20215;-73
2021/11/30 04:08:28;;;;;;;2.67;1.70;;;17.00;99.90;;;;;;4194982;28;20243;-73
2021/11/30 04:10:31;;;;;;;4.15;2.22;;;16.90;99.90;;;;;;4194937;28;20249;-73
2021/11/30 04:12:33;;;;;;;2.60;1.60;;;17.00;99.90;;;;;;4195265;28;20280;-73
2021/11/30 04:14:35;;;;;;;4.18;1.90;;;17.00;99.90;;;;;;4195748;28;20671;-74
2021/11/30 04:16:39;;;;;;;4.13;1.95;;;17.00;99.90;;;;;;4191280;28;20281;-74
2021/11/30 04:18:42;;;;;;;3.15;2.20;;;17.00;99.90;;;;;;4194241;28;20269;-73
2021/11/30 04:20:44;;;;;;;4.18;1.73;;;17.00;99.90;;;;;;4193875;28;20211;-73
2021/11/30 04:22:46;;;;;;;4.82;2.13;;;17.00;99.90;;;;;;4194037;28;20207;-73
2021/11/30 04:24:49;;;;;;;2.50;1.80;;;17.00;99.90;;;;;;4194639;28;20219;-73
2021/11/30 04:26:51;;;;;;;3.42;2.00;;;17.00;99.90;;;;;;4194951;28;20269;-73
2021/11/30 04:28:54;;;;;;;2.38;1.67;;;17.00;99.90;;;;;;4195268;28;20240;-73
2021/11/30 04:30:57;;;;;;;3.45;2.00;;;17.00;99.90;;;;;;4195225;28;20219;-73
2021/11/30 04:33:01;;;;;;;2.88;2.03;;;17.00;99.90;;;;;;4195524;28;20212;-73
2021/11/30 04:35:04;;;;;;;3.42;1.77;;;16.90;99.90;;;;;;4191636;28;20219;-73
2021/11/30 04:37:06;;;;;;;3.95;1.92;;;16.90;99.90;;;;;;4195167;28;20276;-73
2021/11/30 04:39:08;;;;;;;1.85;1.63;;;16.90;99.90;;;;;;4194845;28;20207;-72
2021/11/30 04:41:11;;;;;;;3.72;1.95;;;16.90;99.90;;;;;;4194561;28;20203;-73
2021/11/30 04:43:13;;;;;;;3.00;2.10;;;17.00;99.90;;;;;;4194982;28;20254;-73
2021/11/30 04:45:21;;;;;;;2.30;1.63;;;17.00;99.90;;;;;;4195109;28;20211;-72
2021/11/30 04:47:25;;;;;;;2.03;1.63;;;17.00;99.90;;;;;;4194737;28;20206;-73
2021/11/30 04:49:41;;;;;;;3.05;2.03;;;16.90;99.90;;;;;;4194839;28;20235;-73
2021/11/30 04:51:43;;;;;;;2.97;1.92;;;17.00;99.90;;;;;;4191962;28;20223;-73
2021/11/30 04:53:46;;;;;;;4.80;2.20;;;17.00;99.90;;;;;;4190458;28;20203;-73
2021/11/30 04:55:50;;;;;;;1.88;1.73;;;16.90;99.90;;;;;;4192542;28;20223;-73
2021/11/30 04:57:56;;;;;;;3.42;1.92;;;16.90;99.90;;;;;;4194875;28;20260;-73
2021/11/30 04:59:58;;;;;;;2.45;1.67;;;16.90;99.90;;;;;;4193139;28;20218;-73
2021/11/30 05:02:01;;;;;;;3.38;2.10;;;16.90;99.90;;;;;;4194850;28;20659;-73
2021/11/30 05:04:05;;;;;;;3.78;2.00;;;16.90;99.90;;;;;;4194267;28;20281;-73
2021/11/30 05:06:09;;;;;;;4.00;1.70;;;16.90;99.90;;;;;;4193884;28;20230;-73
2021/11/30 05:08:11;;;;;;;2.08;1.52;;;16.90;99.90;;;;;;4194915;28;20231;-73
2021/11/30 05:10:14;;;;;;;3.47;1.98;;;16.90;99.90;;;;;;4190795;28;20609;-73
2021/11/30 05:12:16;;;;;;;2.00;1.50;;;16.90;99.90;;;;;;4193010;28;20616;-73
2021/11/30 05:14:19;;;;;;;2.20;1.60;;;17.00;99.90;;;;;;4193500;28;20215;-73
2021/11/30 05:16:22;;;;;;;2.72;1.90;;;16.90;99.90;;;;;;4193838;28;20215;-73
2021/11/30 05:18:24;;;;;;;2.63;1.70;;;16.90;99.90;;;;;;4194741;28;20211;-73
2021/11/30 05:20:27;;;;;;;3.47;2.10;;;16.90;99.90;;;;;;4194438;28;20219;-73
2021/11/30 05:22:31;;;;;;;2.65;1.67;;;16.90;99.90;;;;;;4190210;28;20562;-73
2021/11/30 05:24:35;;;;;;;2.63;1.48;;;16.90;99.90;;;;;;4194345;28;20264;-73
2021/11/30 05:26:38;;;;;;;1.92;1.73;;;16.90;99.90;;;;;;4194713;28;20219;-73
2021/11/30 05:28:42;;;;;;;2.75;1.80;;;16.90;99.90;;;;;;4192678;28;20285;-73
2021/11/30 05:30:44;;;;;;;3.53;1.80;;;16.90;99.90;;;;;;4190371;28;20655;-73
2021/11/30 05:32:47;;;;;;;2.47;1.88;;;16.90;99.90;;;;;;4194127;28;20277;-73
2021/11/30 05:34:49;;;;;;;3.15;1.88;;;16.90;99.90;;;;;;4193989;28;20215;-74
2021/11/30 05:36:52;;;;;;;4.00;1.77;;;16.90;99.90;;;;;;4194409;28;20245;-73
2021/11/30 05:38:55;;;;;;;1.95;1.45;;;16.90;99.90;;;;;;4194745;28;20207;-73
2021/11/30 05:40:58;;;;;;;2.80;1.80;;;16.90;99.90;;;;;;4194620;28;20219;-78
2021/11/30 05:43:00;;;;;;;3.25;1.90;;;16.90;99.90;;;;;;4194693;28;20215;-78
2021/11/30 05:45:03;;;;;;;2.85;1.63;;;16.90;99.90;;;;;;4194045;28;20215;-78
2021/11/30 05:47:05;;;;;;;3.47;1.80;;;16.90;99.90;;;;;;4194395;28;20558;-78
2021/11/30 05:49:08;;;;;;;2.10;1.70;;;16.90;99.90;;;;;;4189912;28;20247;-78
2021/11/30 05:51:10;;;;;;;2.03;1.70;;;16.80;99.90;;;;;;4193168;28;20271;-78
2021/11/30 05:53:12;;;;;;;1.75;1.48;;;16.90;99.90;;;;;;4194588;28;20257;-78
2021/11/30 05:55:16;;;;;;;2.80;1.60;;;16.80;99.90;;;;;;4194947;28;20211;-78
2021/11/30 05:57:19;;;;;;;3.33;1.88;;;16.60;99.90;;;;;;4194270;28;20260;-78
2021/11/30 05:59:21;;;;;;;3.17;1.65;;;16.60;99.90;;;;;;4194496;28;20265;-78
2021/11/30 06:01:26;;;;;;;2.65;1.83;;;16.60;99.90;;;;;;4194206;28;20215;-78
2021/11/30 06:03:32;;;;;;;2.45;1.45;;;16.70;99.90;;;;;;4193950;28;20671;-78
2021/11/30 06:05:35;;;;;;;2.10;1.65;;;16.80;99.90;;;;;;4193843;28;20211;-77
2021/11/30 06:07:37;;;;;;;2.75;1.88;;;16.90;99.90;;;;;;4186561;28;20215;-78
2021/11/30 06:09:39;;;;;;;2.58;1.67;;;17.00;99.90;;;;;;4193606;28;20312;-78
2021/11/30 06:11:45;;;;;;;2.58;1.75;;;17.00;99.90;;;;;;4192983;28;20219;-78
2021/11/30 06:13:47;;;;;;;2.53;1.80;;;17.10;99.90;;;;;;4194081;28;20223;-78
2021/11/30 06:15:49;;;;;;;3.80;1.90;;;17.10;99.90;;;;;;4194149;28;20215;-78
2021/11/30 06:17:52;;;;;;;3.15;1.80;;;17.10;99.90;;;;;;4194192;28;20219;-78
2021/11/30 06:19:54;;;;;;;2.50;1.83;;;17.10;99.90;;;;;;4194407;28;20617;-78
2021/11/30 06:21:56;;;;;;;2.28;1.67;;;17.20;99.90;;;;;;4193636;28;20986;-78
2021/11/30 06:23:59;;;;;;;1.80;1.40;;;17.20;99.90;;;;;;4193816;28;20245;-78
2021/11/30 06:26:01;;;;;;;2.63;1.95;;;17.20;99.90;;;;;;4190337;28;20215;-77
2021/11/30 06:28:05;;;;;;;1.85;1.50;;;17.20;99.90;;;;;;4193657;28;20215;-78
2021/11/30 06:30:08;;;;;;;2.10;1.52;;;17.20;99.90;;;;;;4193663;28;20726;-78
2021/11/30 06:32:11;;;;;;;2.63;1.67;;;17.20;99.90;;;;;;4194297;28;20196;-78
2021/11/30 06:34:14;;;;;;;2.72;1.73;;;17.30;99.90;;;;;;4194719;28;20246;-78
2021/11/30 06:36:16;;;;;;;2.10;1.50;;;17.30;99.90;;;;;;4197552;28;20216;-78
2021/11/30 06:38:19;;;;;;;2.08;1.80;;;17.30;99.90;;;;;;4197220;28;20667;-78
2021/11/30 06:40:21;;;;;;;2.05;1.85;;;17.30;99.90;;;;;;4196743;28;20625;-78
2021/11/30 06:42:23;;;;;;;2.20;1.50;;;17.30;99.90;;;;;;4196830;28;20215;-78
2021/11/30 06:44:28;;;;;;;2.63;1.50;;;17.40;99.90;;;;;;4193032;28;20215;-77
2021/11/30 06:46:30;;;;;;;2.40;1.60;;;17.30;99.90;;;;;;4197089;28;20269;-78
2021/11/30 06:48:32;;;;;;;2.67;1.48;;;17.30;99.90;;;;;;4190922;28;20240;-78
2021/11/30 06:50:35;;;;;;;1.65;1.40;;;17.40;99.90;;;;;;4187824;28;20231;-77
2021/11/30 06:52:38;;;;;;;2.05;1.48;;;17.40;99.90;;;;;;4189102;28;20246;-78
2021/11/30 06:54:44;;;;;;;1.58;1.30;;;17.40;99.90;;;;;;4189315;28;20266;-78
2021/11/30 06:56:46;;;;;;;1.52;1.30;;;17.40;99.90;;;;;;4187921;28;20211;-78
2021/11/30 06:58:48;;;;;;;3.70;1.58;;;17.40;99.90;;;;;;4187643;28;20220;-78
2021/11/30 07:00:52;;;;;;;2.15;1.52;;;17.40;99.90;;;;;;4175262;28;20691;-77
2021/11/30 07:02:55;;;;;;;1.88;1.35;;;17.40;99.90;;;;;;4188884;28;20270;-78
2021/11/30 07:05:02;;;;;;;1.80;1.30;;;17.40;99.90;;;;;;4188915;28;20369;-78
2021/11/30 07:07:09;;;;;;;2.28;1.35;;;17.40;99.90;;;;;;4190696;28;20273;-78
2021/11/30 07:09:20;;;;;;;2.33;1.50;;;17.50;99.90;;;;;;4187526;28;20231;-77
2021/11/30 07:11:36;;;;;;;2.50;1.20;;;17.50;99.90;;;;;;4188782;28;20211;-77
2021/11/30 07:13:39;;;;;;;1.67;1.25;;;17.50;99.90;;;;;;4188497;28;20276;-78
2021/11/30 07:15:42;;;;;;;2.25;1.27;;;17.50;99.90;;;;;;4187467;28;20246;-77
2021/11/30 07:17:45;;;;;;;1.63;1.35;;;17.50;99.90;;;;;;4188436;28;20264;-77
2021/11/30 07:19:48;;;;;;;1.80;1.27;;;17.50;99.90;;;;;;4188630;28;20261;-77
2021/11/30 07:21:50;;;;;;;2.15;1.25;;;17.50;99.90;;;;;;4186668;28;20300;-77
2021/11/30 07:23:53;;;;;;;1.83;1.15;;;17.60;99.90;;;;;;4188903;28;20219;-77
2021/11/30 07:25:55;;;;;;;1.63;1.13;;;17.50;99.90;;;;;;4188586;28;20227;-77
2021/11/30 07:27:57;;;;;;;1.33;1.23;;;17.50;99.90;;;;;;4188680;28;20272;-77
2021/11/30 07:30:00;;;;;;;1.45;1.30;;;17.60;99.90;;;;;;4189140;28;20346;-77
2021/11/30 07:32:02;;;;;;;2.28;1.48;;;17.60;99.90;;;;;;4187893;28;20211;-77
2021/11/30 07:34:06;;;;;;;1.35;1.00;;;17.60;99.90;;;;;;4189025;28;20211;-77
2021/11/30 07:36:10;;;;;;;1.48;1.17;;;17.60;99.90;;;;;;4189652;28;20253;-77
2021/11/30 07:38:13;;;;;;;1.23;0.95;;;17.60;99.90;;;;;;4189403;28;20253;-77
2021/11/30 07:40:16;;;;;;;1.10;1.00;;;17.60;99.90;;;;;;4189354;28;20548;-77
2021/11/30 07:42:20;;;;;;;1.42;1.13;;;17.60;99.90;;;;;;4189001;28;20228;-77
2021/11/30 07:44:22;;;;;;;1.77;0.90;;;17.60;99.90;;;;;;4189359;28;20215;-77
2021/11/30 07:46:24;;;;;;;1.63;1.17;;;17.60;99.90;;;;;;4188145;28;20261;-77
2021/11/30 07:48:27;;;;;;;1.20;1.10;;;17.60;99.90;;;;;;4188972;28;20212;-77
2021/11/30 07:50:31;;;;;;;1.15;1.05;;;17.60;99.90;;;;;;4186556;28;20281;-77
2021/11/30 07:52:38;;;;;;;1.20;0.90;;;17.60;99.90;;;;;;4187844;28;20672;-77
2021/11/30 07:54:42;;;;;;;3.30;1.10;;;17.60;99.90;;;;;;4179779;28;20219;-77
2021/11/30 07:56:45;;;;;;;1.40;1.15;;;17.70;99.90;;;;;;4187528;28;20278;-77
2021/11/30 07:58:48;;;;;;;3.85;1.17;;;17.80;99.90;;;;;;4184697;28;20258;-78
2021/11/30 08:00:51;;;;;;;1.50;1.23;;;17.70;99.90;;;;;;4172725;28;20224;-76
2021/11/30 08:02:54;;;;;;;1.80;0.75;;;17.80;99.90;;;;;;4184308;28;20212;-76
2021/11/30 08:04:56;;;;;;;1.75;1.05;;;18.00;99.90;;;;;;4177328;28;20745;-76
2021/11/30 08:07:00;;;;;;;1.17;0.82;;;18.10;99.90;;;;;;4188181;28;20219;-76
2021/11/30 08:09:02;;;;;;;1.15;0.90;;;18.30;99.90;;;;;;4182243;28;20320;-78
2021/11/30 08:11:06;;;;;;;1.80;1.10;;;18.40;99.90;;;;;;4176305;28;20669;-80
2021/11/30 08:13:08;;;;;;;1.30;0.90;;;18.50;99.90;;;;;;4183526;28;20266;-75
2021/11/30 08:15:13;;;;;;;2.80;1.10;;;18.60;99.90;;;;;;4188967;28;20211;-76
2021/11/30 08:17:17;;;;;;;1.20;1.00;;;18.70;99.90;;;;;;4189083;28;22128;-80
2021/11/30 08:19:20;;;;;;;2.05;1.10;;;18.80;99.90;;;;;;4185599;28;20215;-80
2021/11/30 08:21:23;;;;;;;0.98;0.88;;;18.80;99.90;;;;;;4184610;28;20314;-78
2021/11/30 08:23:27;;;;;;;2.20;1.15;;;18.80;99.90;;;;;;4180245;28;20269;-82
2021/11/30 08:25:29;;;;;;;5.60;0.90;;;18.90;99.90;;;;;;4190046;28;20248;-78
2021/11/30 08:27:32;;;;;;;1.42;0.85;;;19.00;99.90;;;;;;4179364;28;20268;-78
2021/11/30 08:29:38;;;;;;;7.88;1.20;;;19.10;99.90;;;;;;4191350;28;20247;-78
2021/11/30 08:31:40;;;;;;;5.13;1.17;;;19.20;99.90;;;;;;4184840;28;20262;-78
2021/11/30 08:33:43;;;;;;;3.17;1.02;;;19.20;99.90;;;;;;4190311;28;20264;-79
2021/11/30 08:35:46;;;;;;;2.88;1.30;;;19.30;99.90;;;;;;4181942;28;20737;-79
2021/11/30 08:37:48;;;;;;;4.85;1.20;;;19.20;99.90;;;;;;4195206;28;20273;-80
2021/11/30 08:39:54;;;;;;;1.00;0.90;;;19.30;99.90;;;;;;4186725;28;20782;-78
2021/11/30 08:41:56;;;;;;;3.70;1.27;;;19.30;99.90;;;;;;4195510;28;20272;-79
2021/11/30 08:43:59;;;;;;;3.47;1.15;;;19.50;99.90;;;;;;4192272;28;20207;-77
2021/11/30 08:46:01;;;;;;;1.33;1.00;;;19.50;99.90;;;;;;4178825;28;20230;-78
2021/11/30 08:48:04;;;;;;;2.15;1.02;;;19.60;99.90;;;;;;4186184;28;20583;-79
2021/11/30 08:50:09;;;;;;;1.60;0.95;;;19.60;99.90;;;;;;4179915;28;20280;-79
2021/11/30 08:52:16;;;;;;;5.15;1.20;;;19.60;99.90;;;;;;4184188;28;20223;-78
2021/11/30 08:54:18;;;;;;;1.70;1.00;;;19.60;99.90;;;;;;4184981;28;20222;-77
2021/11/30 08:56:22;;;;;;;2.65;1.20;;;19.60;99.90;;;;;;4186267;28;20245;-79
2021/11/30 08:58:24;;;;;;;1.42;1.00;;;19.60;99.90;;;;;;4176891;28;20277;-80
2021/11/30 09:00:28;;;;;;;3.08;1.05;;;19.70;99.90;;;;;;4181814;28;20208;-81
2021/11/30 09:02:31;;;;;;;2.40;1.00;;;19.70;99.90;;;;;;4190059;28;20260;-80
2021/11/30 09:04:33;;;;;;;1.35;0.98;;;19.80;99.90;;;;;;4187708;28;20223;-78
2021/11/30 09:06:35;;;;;;;1.45;0.93;;;19.90;99.90;;;;;;4187853;28;20220;-80
2021/11/30 09:08:38;;;;;;;1.27;1.10;;;19.80;99.90;;;;;;4188379;28;20208;-81
2021/11/30 09:10:41;;;;;;;2.13;1.02;;;19.80;99.90;;;;;;4185140;28;20289;-79
2021/11/30 09:12:45;;;;;;;4.25;1.17;;;19.90;99.90;;;;;;4189283;28;20265;-80
2021/11/30 09:14:47;;;;;;;1.00;0.80;;;19.80;99.90;;;;;;4185618;28;20219;-80
2021/11/30 09:16:50;;;;;;;1.10;0.90;;;19.90;99.90;;;;;;4187295;28;20270;-81
2021/11/30 09:18:53;;;;;;;2.08;1.27;;;20.00;99.90;;;;;;4185465;28;20664;-81
2021/11/30 09:20:55;;;;;;;3.10;1.10;;;20.00;99.90;;;;;;4183458;28;20272;-80
2021/11/30 09:22:58;;;;;;;1.45;1.00;;;20.00;99.90;;;;;;4184014;28;20265;-81
2021/11/30 09:25:03;;;;;;;2.38;1.15;;;20.00;99.90;;;;;;4185980;28;20220;-82
2021/11/30 09:27:06;;;;;;;2.42;1.27;;;20.00;99.90;;;;;;4187379;28;20229;-82
2021/11/30 09:29:10;;;;;;;2.60;1.13;;;20.00;99.90;;;;;;4179966;28;20208;-78
2021/11/30 09:31:12;;;;;;;1.80;1.25;;;20.00;99.90;;;;;;4184839;28;20292;-79
2021/11/30 09:33:15;;;;;;;1.58;1.20;;;20.10;99.90;;;;;;4186956;28;20214;-80
2021/11/30 09:35:21;;;;;;;1.75;1.00;;;20.20;99.90;;;;;;4183406;28;20223;-79
2021/11/30 09:37:23;;;;;;;1.15;1.05;;;20.10;99.90;;;;;;4184913;28;20207;-78
2021/11/30 09:39:26;;;;;;;1.20;1.10;;;20.10;99.90;;;;;;4191193;28;20222;-77
2021/11/30 09:41:29;;;;;;;1.60;1.10;;;20.20;99.90;;;;;;4182737;28;20212;-77
2021/11/30 09:43:33;;;;;;;1.35;1.08;;;20.20;99.90;;;;;;4187547;28;20220;-77
2021/11/30 09:45:39;;;;;;;2.47;1.10;;;20.20;99.90;;;;;;4192108;28;20268;-78
2021/11/30 09:47:43;;;;;;;2.67;0.98;;;20.20;99.90;;;;;;4184689;28;20248;-79
2021/11/30 09:49:46;;;;;;;1.25;1.15;;;20.30;99.90;;;;;;4183790;28;20235;-78
2021/11/30 09:51:49;;;;;;;2.22;1.20;;;20.30;99.90;;;;;;4192535;28;20235;-80
2021/11/30 09:53:51;;;;;;;1.92;1.17;;;20.40;99.90;;;;;;4190841;28;20220;-79
2021/11/30 09:55:54;;;;;;;2.72;1.35;;;20.40;99.90;;;;;;4191945;28;20207;-80
2021/11/30 09:57:56;;;;;;;4.40;1.35;;;20.40;99.90;;;;;;4185792;28;20276;-79
2021/11/30 09:59:59;;;;;;;6.18;1.35;;;20.40;99.90;;;;;;4193176;28;20312;-78
2021/11/30 10:02:03;;;;;;;2.70;0.88;;;20.50;99.90;;;;;;4191815;28;20219;-79
2021/11/30 10:04:06;;;;;;;3.15;0.80;;;20.40;99.90;;;;;;4190446;28;20276;-80
2021/11/30 10:06:09;;;;;;;2.08;1.15;;;20.40;99.90;;;;;;4180637;28;20273;-79
2021/11/30 10:08:29;;;;;;;1.33;1.00;;;20.40;99.90;;;;;;4186338;28;20679;-79
2021/11/30 10:10:35;;;;;;;2.15;1.13;;;20.50;99.90;;;;;;4193831;28;20760;-79
2021/11/30 10:12:38;;;;;;;2.10;1.00;;;20.50;99.90;;;;;;4187370;28;20219;-79
2021/11/30 10:14:42;;;;;;;2.47;1.05;;;20.40;99.90;;;;;;4191558;28;20252;-80
2021/11/30 10:17:12;;;;;;;1.27;0.90;;;20.40;99.90;;;;;;4194043;28;21873;-79
2021/11/30 10:19:15;;;;;;;1.95;1.17;;;20.50;99.90;;;;;;4192068;28;20269;-79
2021/11/30 10:21:23;;;;;;;1.30;1.00;;;20.40;99.90;;;;;;4182206;28;20257;-80
2021/11/30 10:23:30;;;;;;;1.45;1.02;;;20.40;99.90;;;;;;4184489;28;20281;-79
2021/11/30 10:25:37;;;;;;;2.85;1.10;;;20.50;99.90;;;;;;4189466;28;20215;-78
2021/11/30 10:27:43;;;;;;;2.50;1.15;;;20.60;99.90;;;;;;4191788;28;20223;-79
2021/11/30 10:29:46;;;;;;;1.25;0.95;;;20.70;99.90;;;;;;4196547;28;20219;-80
2021/11/30 10:31:51;;;;;;;3.53;1.10;;;20.70;99.90;;;;;;4187822;28;20232;-79
2021/11/30 10:33:55;;;;;;;1.50;1.23;;;20.70;99.90;;;;;;4177267;28;20208;-79
2021/11/30 10:35:59;;;;;;;2.17;1.00;;;20.70;99.90;;;;;;4194683;28;20269;-79
2021/11/30 10:38:03;;;;;;;1.33;0.95;;;20.70;99.90;;;;;;4183156;28;20212;-77
2021/11/30 10:40:10;;;;;;;1.60;0.90;;;20.70;99.90;;;;;;4187682;28;20262;-76
2021/11/30 10:42:16;;;;;;;3.15;1.13;;;20.70;99.90;;;;;;4183861;28;20218;-76
2021/11/30 10:44:28;;;;;;;2.13;1.27;;;20.80;99.90;;;;;;4195129;28;20264;-77
2021/11/30 10:46:34;;;;;;;1.60;1.10;;;20.80;99.90;;;;;;4190423;28;20220;-76